Time;durP1;ratioP1;P1;durP2;ratioP2;P2;SDS_P1;SDS_P2;PMS_P1;PMS_P2;Temp;Humidity;BMP_temperature;BMP_pressure;BME280_temperature;BME280_humidity;BME280_pressure;Samples;Min_cycle;Max_cycle;Signal;HPM_P1;HPM_P2
2023/04/28 00:01:52;;;;;;;22.02;8.32;;;;;;;12.02;100.00;99643.66;10377242;28;20042;-70
2023/04/28 00:06:53;;;;;;;16.95;7.25;;;;;;;12.00;100.00;99636.91;10377127;28;20049;-70
2023/04/28 00:11:54;;;;;;;26.83;8.10;;;;;;;12.17;100.00;99643.56;10377778;28;20081;-70
2023/04/28 00:16:57;;;;;;;18.10;7.65;;;;;;;12.17;100.00;99640.91;10377126;28;20080;-69
2023/04/28 00:21:58;;;;;;;16.77;7.82;;;;;;;12.27;100.00;99654.69;10377171;28;20128;-71
2023/04/28 00:26:58;;;;;;;13.73;6.55;;;;;;;11.55;100.00;99500.69;10376424;28;20469;-70
2023/04/28 00:31:59;;;;;;;15.32;7.40;;;;;;;12.52;100.00;99657.69;10377126;28;20508;-70
2023/04/28 00:37:00;;;;;;;21.23;6.60;;;;;;;12.49;100.00;99636.78;10373744;28;20505;-71
2023/04/28 00:42:03;;;;;;;35.80;7.47;;;;;;;12.61;100.00;99663.69;10375989;28;20494;-70
2023/04/28 00:47:04;;;;;;;19.60;6.45;;;;;;;12.54;100.00;99655.66;10375510;28;20046;-70
2023/04/28 00:52:05;;;;;;;17.55;6.60;;;;;;;12.51;100.00;99663.22;10372830;28;20045;-69
2023/04/28 00:57:07;;;;;;;16.88;6.38;;;;;;;11.87;100.00;99590.53;10374696;28;20053;-69
2023/04/28 01:02:08;;;;;;;11.45;5.80;;;;;;;11.64;100.00;99592.63;10374882;28;20049;-69
2023/04/28 01:07:09;;;;;;;15.68;7.75;;;;;;;11.62;100.00;99606.09;10374682;28;20529;-70
2023/04/28 01:12:09;;;;;;;17.25;8.70;;;;;;;11.84;100.00;99643.31;10375034;28;20059;-69
2023/04/28 01:17:10;;;;;;;19.30;11.55;;;;;;;11.95;100.00;99664.09;10374925;28;20050;-70
2023/04/28 01:22:14;;;;;;;30.73;16.58;;;;;;;11.97;100.00;99664.75;10374763;28;20489;-70
2023/04/28 01:27:15;;;;;;;28.70;18.97;;;;;;;11.94;100.00;99665.13;10374703;28;20046;-70
2023/04/28 01:32:16;;;;;;;31.95;20.05;;;;;;;11.90;100.00;99665.69;10374318;28;20038;-70
2023/04/28 01:37:17;;;;;;;32.85;22.05;;;;;;;12.00;100.00;99666.19;10374659;28;20524;-69
2023/04/28 01:42:17;;;;;;;27.00;20.70;;;;;;;11.97;100.00;99669.25;10374026;28;20451;-70
2023/04/28 01:47:19;;;;;;;25.80;18.23;;;;;;;11.83;100.00;99660.28;10374201;28;20092;-70
2023/04/28 01:52:21;;;;;;;26.67;19.17;;;;;;;11.35;100.00;99597.06;10373133;28;20513;-70
2023/04/28 01:57:22;;;;;;;32.17;20.05;;;;;;;11.83;100.00;99671.75;10373849;28;20050;-70
2023/04/28 02:02:23;;;;;;;33.80;19.45;;;;;;;11.80;100.00;99664.16;10372421;28;20498;-70
2023/04/28 02:07:24;;;;;;;34.08;19.55;;;;;;;11.33;100.00;99607.06;10372470;28;20042;-70
2023/04/28 02:12:24;;;;;;;30.50;19.50;;;;;;;11.46;100.00;99643.63;10373106;28;20746;-70
2023/04/28 02:17:28;;;;;;;33.33;21.90;;;;;;;11.69;100.00;99688.63;10363407;28;20065;-70
2023/04/28 02:22:29;;;;;;;38.15;22.13;;;;;;;11.80;100.00;99697.94;10332585;28;20046;-70
2023/04/28 02:27:32;;;;;;;36.78;22.13;;;;;;;11.91;100.00;99707.28;10331279;28;20493;-70
2023/04/28 02:32:32;;;;;;;38.28;25.42;;;;;;;12.01;100.00;99707.75;10331136;28;20050;-70
2023/04/28 02:37:33;;;;;;;40.20;26.73;;;;;;;12.02;100.00;99712.06;10331365;28;20153;-70
2023/04/28 02:42:34;;;;;;;51.72;28.08;;;;;;;12.01;100.00;99702.44;10330352;28;20046;-69
2023/04/28 02:47:35;;;;;;;42.80;27.83;;;;;;;12.01;100.00;99718.41;10347311;28;20041;-69
2023/04/28 02:52:35;;;;;;;45.28;27.48;;;;;;;12.10;100.00;99718.06;10371089;28;20136;-70
2023/04/28 02:57:36;;;;;;;39.42;26.05;;;;;;;12.08;100.00;99717.47;10371072;28;20041;-70
2023/04/28 03:02:37;;;;;;;40.10;27.08;;;;;;;12.25;100.00;99719.81;10371806;28;20042;-70
2023/04/28 03:07:38;;;;;;;45.78;26.77;;;;;;;12.23;100.00;99701.34;10371281;28;20127;-70
2023/04/28 03:12:39;;;;;;;39.85;27.27;;;;;;;12.14;100.00;99672.41;10373675;28;20034;-70
2023/04/28 03:17:40;;;;;;;41.33;27.77;;;;;;;12.43;100.00;99704.16;10378964;28;20123;-70
2023/04/28 03:22:41;;;;;;;38.13;27.17;;;;;;;12.47;100.00;99712.56;10378437;28;20569;-69
2023/04/28 03:27:42;;;;;;;38.35;28.77;;;;;;;12.26;100.00;99650.38;10348283;28;20066;-70
2023/04/28 03:32:42;;;;;;;39.38;27.35;;;;;;;12.26;100.00;99645.03;10372257;28;20555;-72
2023/04/28 03:37:43;;;;;;;35.08;27.48;;;;;;;12.75;100.00;99713.38;10372469;28;20038;-72
2023/04/28 03:42:44;;;;;;;45.70;27.50;;;;;;;12.55;100.00;99669.81;10379065;28;20490;-71
2023/04/28 03:47:45;;;;;;;38.88;24.92;;;;;;;12.29;100.00;99617.19;10377927;28;20049;-72
2023/04/28 03:52:46;;;;;;;37.10;25.60;;;;;;;12.90;100.00;99736.41;10378190;28;20049;-71
2023/04/28 03:57:47;;;;;;;33.30;23.40;;;;;;;12.56;100.00;99672.28;10378178;28;20045;-71
2023/04/28 04:02:47;;;;;;;31.50;22.92;;;;;;;13.03;100.00;99753.25;10377236;28;20049;-71
2023/04/28 04:07:48;;;;;;;25.73;20.23;;;;;;;13.03;100.00;99747.94;10377758;28;20124;-71
2023/04/28 04:12:49;;;;;;;28.70;21.27;;;;;;;12.99;100.00;99746.69;10377297;28;20401;-72
2023/04/28 04:17:50;;;;;;;29.25;22.13;;;;;;;13.02;100.00;99753.47;10376363;28;20493;-72
2023/04/28 04:22:51;;;;;;;31.40;21.13;;;;;;;13.07;100.00;99761.69;10376301;28;20033;-70
2023/04/28 04:27:51;;;;;;;31.77;20.70;;;;;;;13.00;100.00;99764.31;10376893;28;20084;-70
2023/04/28 04:32:52;;;;;;;30.20;19.30;;;;;;;12.41;100.00;99687.53;10375768;28;20107;-70
2023/04/28 04:37:53;;;;;;;27.98;18.67;;;;;;;12.99;100.00;99769.88;10375971;28;20061;-70
2023/04/28 04:42:54;;;;;;;23.92;18.48;;;;;;;13.21;100.00;99797.25;10367715;28;20046;-69
2023/04/28 04:47:55;;;;;;;31.55;19.30;;;;;;;13.26;100.00;99802.03;10373246;28;20042;-71
2023/04/28 04:52:57;;;;;;;26.85;19.27;;;;;;;12.42;100.00;99672.41;10373243;28;20049;-71
2023/04/28 04:57:57;;;;;;;27.60;18.52;;;;;;;13.18;100.00;99800.31;10375101;28;20050;-71
2023/04/28 05:02:59;;;;;;;34.15;19.45;;;;;;;12.88;100.00;99741.09;10375721;28;20103;-71
2023/04/28 05:08:01;;;;;;;29.98;20.35;;;;;;;13.04;100.00;99740.75;10375148;28;20053;-71
2023/04/28 05:13:02;;;;;;;30.67;23.08;;;;;;;13.53;100.00;99811.78;10374947;28;20177;-72
2023/04/28 05:18:08;;;;;;;32.33;21.35;;;;;;;13.51;100.00;99808.47;10375202;28;20141;-72
2023/04/28 05:23:09;;;;;;;33.25;20.35;;;;;;;13.70;100.00;99809.59;10374773;28;20045;-72
2023/04/28 05:28:10;;;;;;;25.30;16.83;;;;;;;13.39;100.00;99770.06;10374604;28;20508;-72
2023/04/28 05:33:11;;;;;;;29.02;19.13;;;;;;;13.89;100.00;99840.81;10374440;28;20034;-72
2023/04/28 05:38:11;;;;;;;22.10;16.67;;;;;;;13.96;100.00;99829.34;10373182;28;20038;-72
2023/04/28 05:43:13;;;;;;;25.33;17.23;;;;;;;13.96;100.00;99846.19;10349929;28;20050;-73
2023/04/28 05:48:13;;;;;;;26.00;18.00;;;;;;;13.69;100.00;99799.91;10333741;28;20069;-72
2023/04/28 05:53:14;;;;;;;24.10;17.58;;;;;;;13.54;100.00;99757.38;10332444;28;20080;-71
2023/04/28 05:58:15;;;;;;;22.98;16.90;;;;;;;14.14;100.00;99835.72;10333306;28;20042;-72
2023/04/28 06:03:17;;;;;;;23.65;17.65;;;;;;;14.27;100.00;99820.72;10332155;28;20101;-72
2023/04/28 06:08:18;;;;;;;20.52;15.82;;;;;;;14.18;100.00;99792.56;10331920;28;20065;-72
2023/04/28 06:13:19;;;;;;;26.20;17.17;;;;;;;14.37;100.00;99808.63;10331776;28;20039;-72
2023/04/28 06:18:20;;;;;;;26.23;18.38;;;;;;;14.31;100.00;99760.53;10332529;28;20133;-72
2023/04/28 06:23:21;;;;;;;30.23;17.55;;;;;;;14.35;100.00;99743.06;10332100;28;20042;-72
2023/04/28 06:28:22;;;;;;;20.88;16.05;;;;;;;14.42;100.00;99765.25;10332031;28;20042;-72
2023/04/28 06:33:22;;;;;;;21.02;15.07;;;;;;;14.63;100.00;99803.50;10332169;28;20085;-71
2023/04/28 06:38:23;;;;;;;20.60;14.30;;;;;;;14.72;100.00;99786.22;10331815;28;20042;-71
2023/04/28 06:43:24;;;;;;;23.88;14.95;;;;;;;14.89;100.00;99789.25;10331911;28;20121;-71
2023/04/28 06:48:25;;;;;;;20.33;14.30;;;;;;;14.95;100.00;99794.59;10335130;28;20486;-72
2023/04/28 06:53:25;;;;;;;20.23;14.02;;;;;;;14.93;100.00;99807.38;10340013;28;20038;-72
2023/04/28 06:58:26;;;;;;;22.65;13.70;;;;;;;15.07;100.00;99808.94;10340044;28;20046;-72
2023/04/28 07:03:27;;;;;;;25.73;14.02;;;;;;;15.23;100.00;99810.34;10339317;28;20053;-72
2023/04/28 07:08:29;;;;;;;24.05;15.40;;;;;;;15.07;100.00;99754.63;10339287;28;20039;-72
2023/04/28 07:13:30;;;;;;;20.73;13.95;;;;;;;15.44;100.00;99814.59;10338791;28;20048;-71
2023/04/28 07:18:31;;;;;;;20.50;13.63;;;;;;;15.55;100.00;99805.06;10338815;28;20095;-72
2023/04/28 07:23:32;;;;;;;24.92;14.25;;;;;;;15.52;100.00;99802.81;10339272;28;20074;-72
2023/04/28 07:28:33;;;;;;;17.02;12.25;;;;;;;15.30;100.00;99743.44;10353196;28;20082;-72
2023/04/28 07:33:33;;;;;;;22.48;13.70;;;;;;;15.45;99.94;99756.53;10338486;28;20121;-73
2023/04/28 07:38:35;;;;;;;20.02;14.02;;;;;;;15.74;99.48;99819.44;10338257;28;20058;-74
2023/04/28 07:43:36;;;;;;;28.92;15.85;;;;;;;15.87;98.91;99797.09;10338439;28;20066;-72
2023/04/28 07:48:36;;;;;;;22.77;15.65;;;;;;;16.06;98.21;99808.72;10337152;28;20486;-72
2023/04/28 07:53:37;;;;;;;24.25;15.00;;;;;;;16.04;97.49;99816.97;10337792;28;20034;-72
2023/04/28 07:58:38;;;;;;;23.48;15.02;;;;;;;16.06;97.54;99827.47;10336992;28;20145;-72
2023/04/28 08:03:39;;;;;;;27.10;15.20;;;;;;;15.53;97.37;99764.31;10337435;28;20490;-72
2023/04/28 08:08:40;;;;;;;22.15;15.10;;;;;;;15.76;97.75;99809.31;10337777;28;20553;-72
2023/04/28 08:13:41;;;;;;;24.17;15.60;;;;;;;15.82;97.57;99824.50;10336372;28;20038;-73
2023/04/28 08:18:42;;;;;;;25.33;15.45;;;;;;;15.41;97.28;99720.53;10336400;28;20423;-73
2023/04/28 08:23:42;;;;;;;27.45;14.65;;;;;;;15.91;97.07;99788.44;10335931;28;20077;-72
2023/04/28 08:28:43;;;;;;;21.02;14.45;;;;;;;15.97;96.76;99790.25;10336644;28;20482;-72
2023/04/28 08:33:47;;;;;;;21.00;14.52;;;;;;;16.12;95.97;99784.56;10335529;28;20050;-72
2023/04/28 08:38:48;;;;;;;27.00;17.95;;;;;;;16.18;94.61;99796.25;10336210;28;20506;-72
2023/04/28 08:43:48;;;;;;;23.42;15.98;;;;;;;16.37;94.21;99791.78;10335914;28;20042;-72
2023/04/28 08:48:56;;;;;;;21.00;13.50;;;;;;;16.49;92.77;99794.56;10335106;28;20035;-72
2023/04/28 08:53:58;;;;;;;22.48;14.63;;;;;;;16.51;92.46;99745.06;10335179;28;20046;-72
2023/04/28 08:59:03;;;;;;;19.17;13.38;;;;;;;16.57;91.99;99695.91;10335761;28;20049;-72
2023/04/28 09:04:05;;;;;;;19.48;13.25;;;;;;;16.88;91.46;99756.66;10335162;28;20057;-72
2023/04/28 09:09:26;;;;;;;16.77;11.60;;;;;;;17.08;90.52;99758.25;10333983;28;20397;-71
2023/04/28 09:14:29;;;;;;;22.85;13.45;;;;;;;17.06;90.51;99747.78;10334657;28;20103;-72
2023/04/28 09:19:37;;;;;;;32.42;14.60;;;;;;;16.72;89.18;99686.66;10333995;28;20197;-72
2023/04/28 09:24:41;;;;;;;24.38;14.00;;;;;;;17.15;89.78;99750.16;10334548;28;20050;-72
2023/04/28 09:29:52;;;;;;;25.05;14.40;;;;;;;17.03;89.41;99758.16;10334466;28;20529;-71
2023/04/28 09:34:57;;;;;;;21.08;13.63;;;;;;;17.04;90.10;99786.59;10333877;28;20042;-71
2023/04/28 09:40:09;;;;;;;28.27;14.02;;;;;;;17.15;89.48;99787.72;10333091;28;20041;-71
2023/04/28 09:45:15;;;;;;;31.70;13.18;;;;;;;17.14;89.42;99784.22;10332890;28;20038;-71
2023/04/28 09:50:17;;;;;;;23.63;13.88;;;;;;;17.31;89.03;99774.50;10333459;28;20093;-72
2023/04/28 09:55:19;;;;;;;24.67;13.07;;;;;;;17.54;87.62;99775.66;10332754;28;20041;-72
2023/04/28 10:00:21;;;;;;;22.70;14.23;;;;;;;18.01;85.51;99770.47;10332790;28;20495;-71
2023/04/28 10:05:22;;;;;;;20.83;13.63;;;;;;;18.48;83.27;99740.91;10332726;28;20438;-72
2023/04/28 10:10:24;;;;;;;23.23;12.90;;;;;;;18.97;81.59;99736.09;10331973;28;20038;-71
2023/04/28 10:15:24;;;;;;;23.25;13.00;;;;;;;19.42;79.60;99729.16;10332525;28;20089;-71
2023/04/28 10:20:28;;;;;;;22.88;13.43;;;;;;;19.59;77.33;99714.69;10332946;28;20058;-71
2023/04/28 10:25:30;;;;;;;;;;;;;;;20.00;73.90;99707.28;10331976;28;20077;-70
2023/04/28 10:30:32;;;;;;;19.73;12.80;;;;;;;19.97;76.33;99670.03;10332091;28;19917;-71
2023/04/28 10:35:35;;;;;;;22.48;12.57;;;;;;;20.12;75.73;99690.22;10331328;28;20046;-71
2023/04/28 10:40:43;;;;;;;25.13;12.38;;;;;;;20.15;74.45;99600.72;10331421;28;20043;-71
2023/04/28 10:51:06;;;;;;;21.33;11.70;;;;;;;21.16;70.85;99657.03;10331989;28;20053;-71
2023/04/28 10:56:07;;;;;;;19.45;11.70;;;;;;;20.91;71.97;99652.16;10331388;28;20038;-71
2023/04/28 11:01:20;;;;;;;19.15;10.45;;;;;;;21.16;69.76;99671.34;10331463;28;20038;-71
2023/04/28 11:06:44;;;;;;;15.67;9.20;;;;;;;21.46;68.94;99650.34;10331346;28;20038;-71
2023/04/28 11:12:01;;;;;;;21.42;10.38;;;;;;;21.91;68.67;99662.59;10331279;28;20128;-71
2023/04/28 11:17:03;;;;;;;15.48;9.55;;;;;;;21.84;69.24;99649.28;10331082;28;20379;-71
2023/04/28 11:22:12;;;;;;;11.35;8.88;;;;;;;22.10;68.11;99644.84;10331216;28;20410;-71
2023/04/28 11:27:23;;;;;;;19.25;8.70;;;;;;;22.05;65.49;99590.75;10330543;28;20061;-71
2023/04/28 11:32:35;;;;;;;14.63;7.68;;;;;;;22.44;64.05;99641.84;10331603;28;20046;-71
2023/04/28 11:37:36;;;;;;;14.88;7.80;;;;;;;22.76;65.13;99631.69;10338447;28;20034;-72
2023/04/28 11:42:46;;;;;;;10.60;7.88;;;;;;;22.77;62.23;99595.41;10338226;28;20493;-72
2023/04/28 11:47:47;;;;;;;11.35;7.47;;;;;;;22.93;64.04;99582.72;10338339;28;20046;-71
2023/04/28 11:52:49;;;;;;;13.48;8.60;;;;;;;22.83;63.53;99549.41;10360855;28;20050;-71
2023/04/28 11:58:21;;;;;;;12.80;7.13;;;;;;;23.54;61.57;99592.81;10377626;28;20050;-73
2023/04/28 12:03:21;;;;;;;23.45;7.00;;;;;;;23.37;62.24;99570.59;10376760;28;20505;-72
2023/04/28 12:08:28;;;;;;;10.43;5.90;;;;;;;23.35;60.74;99548.38;10367283;28;20133;-73
2023/04/28 12:13:29;;;;;;;10.50;5.95;;;;;;;23.56;61.71;99530.19;10378055;28;20556;-73
2023/04/28 12:18:31;;;;;;;9.27;5.10;;;;;;;23.60;61.06;99528.53;10376535;28;20054;-73
2023/04/28 12:23:33;;;;;;;12.27;5.75;;;;;;;23.01;61.28;99419.69;10372906;28;20050;-72
2023/04/28 12:28:40;;;;;;;9.45;6.32;;;;;;;23.83;60.20;99544.25;10374458;28;20042;-73
2023/04/28 12:33:43;;;;;;;11.55;5.18;;;;;;;23.92;60.55;99541.81;10376658;28;20444;-72
2023/04/28 12:38:48;;;;;;;13.37;5.27;;;;;;;23.38;59.54;99497.16;10376710;28;20046;-73
2023/04/28 12:43:49;;;;;;;15.95;5.30;;;;;;;23.76;60.21;99510.41;10372566;28;20053;-75
2023/04/28 12:48:49;;;;;;;11.85;5.45;;;;;;;23.96;60.30;99550.19;10373948;28;20497;-71
2023/04/28 12:53:50;;;;;;;14.38;4.90;;;;;;;23.66;60.05;99495.75;10372227;28;20046;-72
2023/04/28 12:58:51;;;;;;;13.93;4.40;;;;;;;23.89;59.47;99534.22;10372187;28;20061;-73
2023/04/28 13:03:52;;;;;;;12.45;4.53;;;;;;;23.76;60.27;99537.53;10371339;28;20052;-72
2023/04/28 13:08:53;;;;;;;12.55;4.85;;;;;;;23.88;59.85;99535.31;10374511;28;20038;-72
2023/04/28 13:14:12;;;;;;;9.10;4.93;;;;;;;23.60;59.79;99469.75;10375907;28;20514;-72
2023/04/28 13:19:13;;;;;;;10.95;5.00;;;;;;;23.91;60.14;99529.34;10361843;28;20053;-73
2023/04/28 13:24:14;;;;;;;8.77;4.55;;;;;;;23.73;60.21;99491.97;10369305;28;20054;-72
2023/04/28 13:29:15;;;;;;;9.98;4.60;;;;;;;23.75;60.90;99515.00;10352477;28;20565;-72
2023/04/28 13:34:17;;;;;;;9.25;4.78;;;;;;;23.87;61.28;99536.38;10345835;28;20073;-73
2023/04/28 13:39:19;;;;;;;13.23;4.97;;;;;;;23.67;61.35;99540.75;10333903;28;20553;-72
2023/04/28 13:44:20;;;;;;;24.88;6.97;;;;;;;23.34;61.77;99484.44;10333919;28;20042;-72
2023/04/28 13:49:22;;;;;;;12.02;4.35;;;;;;;23.43;62.15;99526.97;10342448;28;20038;-73
2023/04/28 13:54:23;;;;;;;10.55;4.60;;;;;;;23.24;63.03;99548.38;10374226;28;20131;-73
2023/04/28 13:59:24;;;;;;;15.65;4.75;;;;;;;23.16;63.81;99535.38;10374437;28;20069;-72
2023/04/28 14:04:24;;;;;;;11.20;4.63;;;;;;;23.00;64.19;99544.56;10373198;28;20042;-72
2023/04/28 14:09:25;;;;;;;12.38;5.22;;;;;;;22.73;65.03;99515.78;10372797;28;20079;-71
2023/04/28 14:14:26;;;;;;;15.02;4.63;;;;;;;22.76;66.02;99536.09;10373002;28;20046;-72
2023/04/28 14:19:27;;;;;;;8.65;4.15;;;;;;;22.58;66.32;99544.72;10373408;28;20050;-72
2023/04/28 14:24:28;;;;;;;8.57;4.03;;;;;;;22.30;66.16;99523.25;10373154;28;20081;-73
2023/04/28 14:29:29;;;;;;;12.27;4.35;;;;;;;22.31;66.69;99560.06;10370684;28;20069;-73
2023/04/28 14:34:30;;;;;;;15.43;5.03;;;;;;;22.14;66.82;99556.72;10398877;28;20048;-72
2023/04/28 14:39:31;;;;;;;11.80;4.97;;;;;;;22.07;67.32;99577.75;10412754;28;20037;-72
2023/04/28 14:44:33;;;;;;;10.60;4.28;;;;;;;21.94;67.91;99580.94;10413750;28;20140;-71
2023/04/28 14:49:34;;;;;;;10.27;4.53;;;;;;;21.79;68.10;99585.19;10412825;28;20037;-72
2023/04/28 14:54:35;;;;;;;12.85;4.60;;;;;;;21.66;68.75;99577.53;10412499;28;20045;-72
2023/04/28 14:59:36;;;;;;;14.88;5.63;;;;;;;21.53;69.31;99577.97;10412766;28;20041;-72
2023/04/28 15:04:38;;;;;;;12.88;5.60;;;;;;;21.37;69.84;99566.22;10412496;28;20524;-72
2023/04/28 15:09:39;;;;;;;9.38;4.93;;;;;;;21.36;70.00;99557.31;10416481;28;20041;-73
2023/04/28 15:14:40;;;;;;;10.60;5.53;;;;;;;21.04;70.15;99513.25;10418957;28;20041;-75
2023/04/28 15:19:41;;;;;;;11.07;5.60;;;;;;;21.16;70.33;99557.91;10364929;28;20054;-74
2023/04/28 15:24:42;;;;;;;13.07;5.38;;;;;;;21.07;70.46;99572.16;10369192;28;20046;-74
2023/04/28 15:29:43;;;;;;;14.75;6.53;;;;;;;20.82;70.40;99553.78;10378729;28;20460;-74
2023/04/28 15:34:44;;;;;;;15.93;7.25;;;;;;;20.54;70.77;99562.94;10371189;28;20518;-74
2023/04/28 15:39:45;;;;;;;19.52;6.88;;;;;;;20.38;71.04;99570.84;10352224;28;21346;-74
2023/04/28 15:44:46;;;;;;;20.58;7.18;;;;;;;19.99;71.54;99530.44;10360258;28;20049;-74
2023/04/28 15:49:46;;;;;;;15.35;6.43;;;;;;;20.06;71.91;99568.81;10354430;28;20049;-74
2023/04/28 15:54:47;;;;;;;14.82;7.13;;;;;;;19.50;72.21;99494.41;10351708;28;20041;-73
2023/04/28 15:59:50;;;;;;;14.13;6.13;;;;;;;19.82;72.45;99562.00;10354069;28;20044;-73
2023/04/28 16:04:51;;;;;;;14.10;7.25;;;;;;;19.71;72.96;99577.19;10352431;28;20038;-73
2023/04/28 16:09:52;;;;;;;16.20;7.15;;;;;;;19.42;73.14;99537.94;10380408;28;20540;-74
2023/04/28 16:14:54;;;;;;;17.45;7.85;;;;;;;19.50;73.75;99567.94;10362056;28;20157;-74
2023/04/28 16:19:55;;;;;;;23.85;8.38;;;;;;;19.36;74.41;99577.44;10363335;28;20117;-73
2023/04/28 16:24:59;;;;;;;16.17;8.55;;;;;;;18.80;75.02;99525.31;10355108;28;20084;-74
2023/04/28 16:30:00;;;;;;;19.40;8.50;;;;;;;18.55;75.62;99518.41;10363137;28;20096;-74
2023/04/28 16:35:01;;;;;;;20.70;10.02;;;;;;;18.88;76.35;99581.44;10357532;28;20336;-73
2023/04/28 16:40:02;;;;;;;37.72;15.38;;;;;;;18.67;76.68;99551.44;10352021;28;20033;-73
2023/04/28 16:45:03;;;;;;;27.75;14.15;;;;;;;18.75;76.81;99565.56;10352317;28;20092;-73
2023/04/28 16:50:05;;;;;;;39.75;18.77;;;;;;;18.69;77.48;99576.22;10374210;28;20046;-71
2023/04/28 16:55:06;;;;;;;33.15;18.00;;;;;;;18.48;78.25;99568.81;10376225;28;20034;-73
2023/04/28 17:00:08;;;;;;;32.70;17.13;;;;;;;17.87;79.03;99500.34;10374883;28;20042;-73
2023/04/28 17:05:09;;;;;;;31.63;13.38;;;;;;;18.19;80.05;99590.28;10375291;28;20457;-74
2023/04/28 17:10:10;;;;;;;28.15;14.13;;;;;;;18.04;80.69;99616.81;10375767;28;20133;-73
2023/04/28 17:15:15;;;;;;;22.25;11.85;;;;;;;17.77;81.53;99616.44;10374773;28;20461;-70
2023/04/28 17:20:18;;;;;;;39.03;23.02;;;;;;;17.62;81.77;99643.75;10373248;28;20148;-73
2023/04/28 17:25:22;;;;;;;51.22;25.48;;;;;;;17.65;83.27;99647.81;10374508;28;20049;-73
2023/04/28 17:30:24;;;;;;;111.63;50.83;;;;;;;17.69;82.47;99649.81;10373856;28;20109;-73
2023/04/28 17:35:26;;;;;;;52.10;32.22;;;;;;;17.70;82.86;99626.47;10374187;28;20033;-72
2023/04/28 17:40:27;;;;;;;139.40;68.03;;;;;;;17.54;83.54;99618.03;10374080;28;20088;-72
2023/04/28 17:45:27;;;;;;;66.60;33.60;;;;;;;17.46;84.53;99594.19;10373170;28;20453;-72
2023/04/28 17:50:29;;;;;;;39.80;19.30;;;;;;;17.20;85.11;99563.25;10374245;28;20470;-73
2023/04/28 17:55:31;;;;;;;42.25;22.30;;;;;;;17.14;86.86;99531.97;10373329;28;20892;-73
2023/04/28 18:00:32;;;;;;;31.35;15.70;;;;;;;17.29;86.97;99537.69;10373289;28;20383;-74
2023/04/28 18:05:33;;;;;;;29.38;14.70;;;;;;;17.29;87.36;99504.66;10373425;28;20048;-73
2023/04/28 18:10:34;;;;;;;30.58;17.23;;;;;;;17.33;87.83;99503.97;10373279;28;20489;-74
2023/04/28 18:15:35;;;;;;;32.80;17.30;;;;;;;17.29;88.49;99484.00;10372793;28;20065;-72
2023/04/28 18:20:36;;;;;;;82.70;38.83;;;;;;;17.20;88.57;99487.25;10373009;28;20497;-72
2023/04/28 18:25:37;;;;;;;1584.75;839.67;;;;;;;16.60;88.87;99386.25;10372158;28;20038;-73
2023/04/28 18:35:39;;;;;;;194.77;90.30;;;;;;;16.82;89.27;99478.56;10380851;28;20052;-73
2023/04/28 18:40:40;;;;;;;91.00;44.83;;;;;;;16.63;89.15;99436.75;10412618;28;20496;-73
2023/04/28 18:45:41;;;;;;;91.90;45.88;;;;;;;16.91;88.84;99459.47;10412617;28;20049;-74
2023/04/28 18:50:42;;;;;;;101.95;52.40;;;;;;;16.75;88.73;99428.72;10411799;28;20187;-73
2023/04/28 18:55:42;;;;;;;50.53;27.33;;;;;;;16.63;88.95;99400.03;10413317;28;20492;-73
2023/04/28 19:00:44;;;;;;;48.75;17.65;;;;;;;16.40;89.29;99411.53;10412815;28;20533;-73
2023/04/28 19:05:45;;;;;;;44.75;16.70;;;;;;;16.54;89.84;99478.34;10412488;28;20502;-74
2023/04/28 19:10:47;;;;;;;63.63;15.93;;;;;;;16.25;90.66;99447.84;10412220;28;20059;-73
2023/04/28 19:15:53;;;;;;;22.38;13.80;;;;;;;16.10;92.25;99442.88;10411685;28;20037;-74
2023/04/28 19:21:01;;;;;;;24.65;12.85;;;;;;;15.53;93.46;99371.63;10412427;28;20057;-73
2023/04/28 19:26:02;;;;;;;24.55;13.32;;;;;;;15.86;92.38;99464.19;10389626;28;20560;-73
2023/04/28 19:31:03;;;;;;;23.58;13.77;;;;;;;15.25;93.18;99382.84;10371302;28;20053;-73
2023/04/28 19:36:06;;;;;;;32.30;15.20;;;;;;;15.55;94.29;99456.25;10371471;28;20425;-73
2023/04/28 19:41:07;;;;;;;20.80;12.02;;;;;;;14.84;93.41;99362.06;10369266;28;20046;-73
2023/04/28 19:46:07;;;;;;;19.10;12.82;;;;;;;14.97;94.03;99409.25;10371144;28;20440;-74
2023/04/28 19:51:08;;;;;;;25.80;13.82;;;;;;;14.67;94.56;99391.22;10370624;28;20093;-72
2023/04/28 19:56:09;;;;;;;29.92;13.65;;;;;;;14.37;95.06;99369.63;10357807;28;20449;-73
2023/04/28 20:01:09;;;;;;;24.60;14.38;;;;;;;14.84;95.38;99469.84;10352273;28;20133;-73
2023/04/28 20:06:16;;;;;;;39.70;14.48;;;;;;;14.69;97.59;99481.84;10336942;28;20129;-72
2023/04/28 20:11:18;;;;;;;20.90;12.98;;;;;;;14.59;96.45;99475.13;10336147;28;20618;-73
2023/04/28 20:16:23;;;;;;;30.55;13.88;;;;;;;14.52;97.82;99469.03;10337571;28;20058;-72
2023/04/28 20:21:25;;;;;;;20.63;13.00;;;;;;;14.34;96.69;99440.31;10343529;28;20104;-73
2023/04/28 20:26:26;;;;;;;26.15;13.50;;;;;;;14.45;96.54;99464.72;10376287;28;20037;-73
2023/04/28 20:31:27;;;;;;;21.63;12.27;;;;;;;13.40;97.04;99318.16;10375694;28;20133;-74
2023/04/28 20:36:29;;;;;;;29.63;16.15;;;;;;;14.21;97.87;99439.56;10376203;28;20180;-73
2023/04/28 20:41:30;;;;;;;33.75;19.88;;;;;;;13.83;98.59;99376.31;10376084;28;20038;-74
2023/04/28 20:46:31;;;;;;;33.83;19.15;;;;;;;14.36;98.95;99440.13;10376326;28;20486;-73
2023/04/28 20:51:32;;;;;;;28.75;20.73;;;;;;;14.34;98.58;99397.56;10376211;28;20103;-73
2023/04/28 20:56:33;;;;;;;34.03;21.40;;;;;;;14.43;98.41;99408.00;10374256;28;20046;-73
2023/04/28 21:01:34;;;;;;;27.30;18.48;;;;;;;14.43;98.05;99419.50;10375941;28;20030;-73
2023/04/28 21:06:35;;;;;;;33.70;20.23;;;;;;;13.87;97.94;99321.44;10375083;28;20050;-73
2023/04/28 21:11:36;;;;;;;29.52;19.35;;;;;;;14.16;98.61;99405.50;10345092;28;20414;-73
2023/04/28 21:16:37;;;;;;;30.10;18.60;;;;;;;13.84;98.59;99386.75;10334730;28;20045;-74
2023/04/28 21:21:37;;;;;;;27.90;16.38;;;;;;;13.79;98.04;99415.13;10333584;28;20510;-74
2023/04/28 21:26:39;;;;;;;22.80;16.05;;;;;;;13.81;98.35;99439.75;10334803;28;20558;-74
2023/04/28 21:31:40;;;;;;;55.55;33.90;;;;;;;13.70;98.42;99479.44;10334053;28;20053;-74
2023/04/28 21:36:41;;;;;;;55.33;32.30;;;;;;;13.69;98.67;99463.59;10334535;28;20042;-74
2023/04/28 21:41:42;;;;;;;44.17;26.00;;;;;;;13.69;99.16;99461.75;10333122;28;20046;-73
2023/04/28 21:46:43;;;;;;;46.20;27.23;;;;;;;13.20;98.93;99384.91;10333566;28;20042;-73
2023/04/28 21:51:44;;;;;;;46.40;29.42;;;;;;;13.33;99.33;99416.09;10332891;28;20042;-73
2023/04/28 21:56:45;;;;;;;49.22;29.13;;;;;;;13.36;100.00;99453.81;10333312;28;20449;-74
2023/04/28 22:01:46;;;;;;;44.85;27.83;;;;;;;13.33;100.00;99461.44;10332414;28;20096;-73
2023/04/28 22:06:47;;;;;;;42.05;26.27;;;;;;;13.31;100.00;99458.13;10333036;28;20038;-73
2023/04/28 22:11:48;;;;;;;37.47;23.75;;;;;;;13.40;100.00;99464.91;10332493;28;20074;-74
2023/04/28 22:16:49;;;;;;;31.60;21.67;;;;;;;12.97;100.00;99372.81;10331270;28;20069;-74
2023/04/28 22:21:50;;;;;;;31.25;21.05;;;;;;;13.60;100.00;99449.66;10332872;28;20058;-73
2023/04/28 22:26:51;;;;;;;29.88;20.27;;;;;;;13.59;100.00;99477.38;10331881;28;20050;-73
2023/04/28 22:31:52;;;;;;;32.17;19.88;;;;;;;13.52;100.00;99463.25;10332375;28;20126;-74
2023/04/28 22:36:53;;;;;;;32.60;19.95;;;;;;;13.55;100.00;99456.66;10330326;28;20125;-74
2023/04/28 22:41:54;;;;;;;27.85;17.42;;;;;;;13.46;100.00;99488.06;10331361;28;20495;-74
2023/04/28 22:46:55;;;;;;;27.00;16.70;;;;;;;12.92;100.00;99425.97;10330917;28;20062;-73
2023/04/28 22:51:57;;;;;;;28.08;19.10;;;;;;;13.42;100.00;99484.19;10331569;28;20054;-74
2023/04/28 22:56:58;;;;;;;32.63;20.80;;;;;;;13.46;100.00;99480.06;10331014;28;20034;-74
2023/04/28 23:01:59;;;;;;;33.15;20.13;;;;;;;12.95;100.00;99422.03;10331603;28;20050;-73